Time;durP1;ratioP1;P1;durP2;ratioP2;P2;SDS_P1;SDS_P2;PMS_P1;PMS_P2;Temp;Humidity;BMP_temperature;BMP_pressure;BME280_temperature;BME280_humidity;BME280_pressure;Samples;Min_cycle;Max_cycle;Signal;HPM_P1;HPM_P2
2021/01/02 00:02:36;;;;;;;64.20;27.10;;;;;;;1.33;100.00;101258.66;4975007;28;20043;-80
2021/01/02 00:05:12;;;;;;;70.53;28.70;;;;;;;1.35;100.00;101267.34;4974673;28;20035;-79
2021/01/02 00:07:58;;;;;;;67.03;28.33;;;;;;;1.37;100.00;101261.97;4958535;29;20035;-79
2021/01/02 00:10:30;;;;;;;78.03;30.95;;;;;;;1.38;100.00;101271.59;4958889;28;20039;-79
2021/01/02 00:13:13;;;;;;;65.03;28.40;;;;;;;1.36;100.00;101266.41;4959132;28;20035;-79
2021/01/02 00:15:53;;;;;;;67.28;27.20;;;;;;;1.36;100.00;101263.78;4955449;28;20035;-79
2021/01/02 00:18:37;;;;;;;74.15;29.38;;;;;;;1.35;100.00;101263.84;4954995;28;20043;-79
2021/01/02 00:21:23;;;;;;;67.45;28.17;;;;;;;1.37;100.00;101268.09;4936602;29;20040;-79
2021/01/02 00:24:04;;;;;;;68.30;28.90;;;;;;;1.37;100.00;101269.91;4955276;28;20485;-78
2021/01/02 00:26:42;;;;;;;74.30;30.08;;;;;;;1.37;100.00;101272.53;4954574;28;20031;-79
2021/01/02 00:29:16;;;;;;;76.57;29.42;;;;;;;1.37;100.00;101264.63;4954915;28;20039;-79
2021/01/02 00:32:03;;;;;;;66.85;27.75;;;;;;;1.40;100.00;101267.88;4954385;28;20031;-77
2021/01/02 00:34:36;;;;;;;73.22;28.27;;;;;;;1.41;100.00;101260.84;4953284;28;20031;-79
2021/01/02 00:37:02;;;;;;;69.88;28.77;;;;;;;1.44;100.00;101263.25;4952621;28;20051;-78
2021/01/02 00:39:44;;;;;;;64.97;27.70;;;;;;;1.44;100.00;101263.25;4953727;28;20098;-78
2021/01/02 00:42:12;;;;;;;59.28;26.17;;;;;;;1.41;100.00;101263.47;4953441;29;20065;-78
2021/01/02 00:44:41;;;;;;;69.88;27.55;;;;;;;1.42;100.00;101273.09;4952915;28;20121;-79
2021/01/02 00:47:09;;;;;;;73.28;27.48;;;;;;;1.46;100.00;101270.16;4952608;28;20493;-80
2021/01/02 00:49:36;;;;;;;59.38;24.92;;;;;;;1.40;100.00;101270.53;4953067;29;20094;-79
2021/01/02 00:52:14;;;;;;;62.80;26.10;;;;;;;1.38;100.00;101276.88;4952555;28;20035;-78
2021/01/02 00:54:58;;;;;;;64.30;26.98;;;;;;;1.41;100.00;101266.13;4952878;28;20039;-79
2021/01/02 00:57:44;;;;;;;73.47;28.85;;;;;;;1.38;100.00;101269.78;4956152;28;20035;-78
2021/01/02 01:00:13;;;;;;;65.38;27.50;;;;;;;1.43;100.00;101264.22;4957799;29;20039;-79
2021/01/02 01:02:54;;;;;;;70.32;27.73;;;;;;;1.41;100.00;101263.47;4958943;28;20042;-79
2021/01/02 01:05:21;;;;;;;64.57;26.58;;;;;;;1.43;100.00;101257.13;4957658;29;20035;-79
2021/01/02 01:07:52;;;;;;;66.50;27.13;;;;;;;1.44;100.00;101261.47;4958925;28;20027;-79
2021/01/02 01:10:23;;;;;;;59.42;25.20;;;;;;;1.47;100.00;101265.72;4959017;28;20042;-79
2021/01/02 01:12:57;;;;;;;61.60;25.25;;;;;;;1.41;100.00;101272.25;4959135;28;20106;-79
2021/01/02 01:15:23;;;;;;;62.47;25.17;;;;;;;1.38;100.00;101266.31;4946326;29;20035;-79
2021/01/02 01:18:01;;;;;;;60.72;24.55;;;;;;;1.40;100.00;101267.88;4958183;29;20036;-78
2021/01/02 01:20:28;;;;;;;59.13;24.35;;;;;;;1.47;100.00;101277.16;4949335;28;20062;-79
2021/01/02 01:23:11;;;;;;;64.60;24.42;;;;;;;1.46;100.00;101275.47;4955001;29;20326;-79
2021/01/02 01:25:56;;;;;;;55.65;22.83;;;;;;;1.47;100.00;101281.59;4959359;28;20043;-79
2021/01/02 01:28:24;;;;;;;59.28;25.67;;;;;;;1.53;100.00;101276.75;4961525;28;20035;-79
2021/01/02 01:30:54;;;;;;;61.90;24.00;;;;;;;1.50;100.00;101279.56;4958418;28;20038;-79
2021/01/02 01:33:28;;;;;;;57.03;22.63;;;;;;;1.51;100.00;101277.81;4957693;29;20085;-79
2021/01/02 01:35:58;;;;;;;55.10;22.85;;;;;;;1.49;100.00;101277.03;4972962;28;20027;-79
2021/01/02 01:38:27;;;;;;;57.55;24.17;;;;;;;1.48;100.00;101281.47;4958225;28;20113;-78
2021/01/02 01:40:58;;;;;;;58.47;23.70;;;;;;;1.46;100.00;101285.19;4958913;28;20680;-78
2021/01/02 01:43:45;;;;;;;61.13;23.35;;;;;;;1.48;100.00;101292.06;4973560;28;20035;-79
2021/01/02 01:46:14;;;;;;;56.13;22.52;;;;;;;1.53;100.00;101291.78;4958915;28;20050;-79
2021/01/02 01:48:51;;;;;;;57.95;23.23;;;;;;;1.51;100.00;101298.97;4960534;28;20031;-79
2021/01/02 01:51:37;;;;;;;54.35;23.35;;;;;;;1.49;100.00;101306.97;4962503;28;20042;-78
2021/01/02 01:54:27;;;;;;;57.22;24.00;;;;;;;1.51;100.00;101305.09;4961824;28;20035;-78
2021/01/02 01:57:01;;;;;;;53.88;23.83;;;;;;;1.52;100.00;101301.50;4962347;28;20062;-79
2021/01/02 01:59:47;;;;;;;60.30;24.60;;;;;;;1.61;100.00;101305.38;4960668;28;20023;-77
2021/01/02 02:02:16;;;;;;;64.13;24.25;;;;;;;1.57;100.00;101303.00;4962293;28;20050;-76
2021/01/02 02:05:00;;;;;;;53.55;22.45;;;;;;;1.55;100.00;101303.94;4962650;28;20039;-79
2021/01/02 02:07:44;;;;;;;63.53;24.30;;;;;;;1.50;100.00;101307.81;4961257;29;20520;-79
2021/01/02 02:10:26;;;;;;;56.92;23.70;;;;;;;1.49;100.00;101308.78;4961132;29;20598;-79
2021/01/02 02:12:56;;;;;;;57.40;23.50;;;;;;;1.43;100.00;101311.81;4961437;28;20496;-79
2021/01/02 02:15:28;;;;;;;56.15;23.73;;;;;;;1.44;100.00;101308.22;4949870;29;20042;-78
2021/01/02 02:18:06;;;;;;;60.58;23.90;;;;;;;1.41;100.00;101303.97;4962039;28;20028;-79
2021/01/02 02:20:34;;;;;;;53.75;23.35;;;;;;;1.43;100.00;101309.16;4961755;29;20412;-79
2021/01/02 02:23:22;;;;;;;47.95;21.67;;;;;;;1.47;100.00;101305.38;4961796;28;20042;-79
2021/01/02 02:26:03;;;;;;;50.63;21.05;;;;;;;1.44;100.00;101303.78;4962438;28;20024;-79
2021/01/02 02:28:35;;;;;;;49.58;21.27;;;;;;;1.43;100.00;101306.53;4961837;28;20035;-77
2021/01/02 02:31:08;;;;;;;49.22;22.15;;;;;;;1.43;100.00;101306.53;4962064;28;20501;-79
2021/01/02 02:33:36;;;;;;;58.67;23.23;;;;;;;1.38;100.00;101295.38;4961994;28;20095;-79
2021/01/02 02:36:04;;;;;;;53.38;21.83;;;;;;;1.41;100.00;101309.28;4961701;28;20117;-79
2021/01/02 02:38:36;;;;;;;51.10;21.55;;;;;;;1.44;100.00;101300.28;4961516;28;20055;-79
2021/01/02 02:41:05;;;;;;;50.42;21.70;;;;;;;1.41;100.00;101298.69;4976375;28;20536;-79
2021/01/02 02:43:33;;;;;;;50.10;21.45;;;;;;;1.40;100.00;101301.41;4961936;28;20085;-79
2021/01/02 02:46:01;;;;;;;50.78;20.70;;;;;;;1.45;100.00;101300.16;4959966;28;20209;-79
2021/01/02 02:48:29;;;;;;;49.92;21.20;;;;;;;1.37;100.00;101297.19;4961838;28;20046;-79
2021/01/02 02:50:55;;;;;;;52.50;21.75;;;;;;;1.37;100.00;101297.19;4960943;29;20027;-79
2021/01/02 02:53:21;;;;;;;54.85;21.58;;;;;;;1.34;100.00;101300.00;4976545;28;20027;-79
2021/01/02 02:55:46;;;;;;;53.13;21.02;;;;;;;1.36;100.00;101305.22;4976681;28;20034;-79
2021/01/02 02:58:13;;;;;;;56.72;21.52;;;;;;;1.33;100.00;101308.88;4961371;28;20034;-78
2021/01/02 03:00:39;;;;;;;53.60;20.88;;;;;;;1.33;100.00;101303.59;4960062;28;20031;-79
2021/01/02 03:03:11;;;;;;;54.35;21.65;;;;;;;1.33;100.00;101305.41;4961680;28;20034;-79
2021/01/02 03:05:39;;;;;;;51.17;21.70;;;;;;;1.26;100.00;101297.84;4961044;28;20070;-79
2021/01/02 03:08:06;;;;;;;49.33;20.48;;;;;;;1.27;100.00;101302.19;4976062;28;20061;-79
2021/01/02 03:10:32;;;;;;;48.65;19.65;;;;;;;1.28;100.00;101300.41;4960943;28;20040;-78
2021/01/02 03:12:58;;;;;;;51.40;20.40;;;;;;;1.29;100.00;101302.94;4961594;28;20031;-77
2021/01/02 03:15:26;;;;;;;56.63;21.08;;;;;;;1.27;100.00;101304.00;4961084;28;20027;-79
2021/01/02 03:17:52;;;;;;;48.15;20.85;;;;;;;1.29;100.00;101304.72;4961208;28;20035;-79
2021/01/02 03:20:19;;;;;;;47.10;19.38;;;;;;;1.29;100.00;101308.22;4953739;28;20087;-77
2021/01/02 03:22:47;;;;;;;56.63;22.20;;;;;;;1.27;100.00;101301.34;4956579;29;20107;-79
2021/01/02 03:25:14;;;;;;;49.25;20.35;;;;;;;1.28;100.00;101295.97;4976266;28;20042;-77
2021/01/02 03:27:40;;;;;;;48.75;20.33;;;;;;;1.27;100.00;101302.19;4960376;28;20033;-79
2021/01/02 03:30:08;;;;;;;50.30;19.85;;;;;;;1.27;100.00;101302.19;4960971;28;20090;-79
2021/01/02 03:32:34;;;;;;;56.33;22.30;;;;;;;1.31;100.00;101299.38;4959921;28;20031;-79
2021/01/02 03:35:00;;;;;;;56.47;22.67;;;;;;;1.27;100.00;101298.69;4960159;28;20545;-78
2021/01/02 03:37:26;;;;;;;55.88;20.83;;;;;;;1.34;100.00;101301.81;4961010;28;20114;-79
2021/01/02 03:39:52;;;;;;;52.28;20.67;;;;;;;1.32;100.00;101295.78;4953502;28;20404;-79
2021/01/02 03:42:17;;;;;;;47.45;20.08;;;;;;;1.33;100.00;101300.97;4976000;28;20082;-79
2021/01/02 03:44:43;;;;;;;48.70;20.30;;;;;;;1.31;100.00;101299.38;4960998;29;20038;-79
2021/01/02 03:47:09;;;;;;;52.90;20.30;;;;;;;1.33;100.00;101300.13;4959936;28;20512;-79
2021/01/02 03:49:36;;;;;;;49.90;21.15;;;;;;;1.31;100.00;101299.38;4976398;28;20183;-78
2021/01/02 03:52:03;;;;;;;52.40;20.58;;;;;;;1.32;100.00;101298.41;4961123;28;20122;-79
2021/01/02 03:54:28;;;;;;;50.72;20.35;;;;;;;1.33;100.00;101294.81;4976070;28;20027;-79
2021/01/02 03:56:54;;;;;;;46.78;19.40;;;;;;;1.36;100.00;101297.28;4975730;28;20085;-79
2021/01/02 03:59:19;;;;;;;48.47;20.23;;;;;;;1.41;100.00;101295.22;4961039;28;20485;-78
2021/01/02 04:01:52;;;;;;;48.65;19.77;;;;;;;1.43;100.00;101301.22;4960695;28;20038;-79
2021/01/02 04:04:17;;;;;;;51.47;21.30;;;;;;;1.40;100.00;101296.13;4961380;28;20473;-79
2021/01/02 04:06:43;;;;;;;53.65;20.42;;;;;;;1.40;100.00;101293.47;4959595;28;20031;-77
2021/01/02 04:09:08;;;;;;;58.22;21.48;;;;;;;1.42;100.00;101294.25;4959352;28;20031;-79
2021/01/02 04:11:40;;;;;;;50.40;19.02;;;;;;;1.43;100.00;101295.94;4955307;28;20032;-78
2021/01/02 04:14:06;;;;;;;52.13;20.00;;;;;;;1.46;100.00;101296.59;4954963;28;20055;-78
2021/01/02 04:16:32;;;;;;;40.60;16.85;;;;;;;1.48;100.00;101288.56;4954181;28;20528;-78
2021/01/02 04:18:57;;;;;;;40.22;17.52;;;;;;;1.47;100.00;101290.38;4954349;28;20065;-79
2021/01/02 04:21:23;;;;;;;45.35;16.80;;;;;;;1.55;100.00;101292.50;4954072;29;20039;-79
2021/01/02 04:23:48;;;;;;;50.00;18.55;;;;;;;1.49;100.00;101290.25;4954530;28;20038;-79
2021/01/02 04:26:25;;;;;;;52.30;18.70;;;;;;;1.46;100.00;101291.31;4952168;28;20540;-79
2021/01/02 04:28:52;;;;;;;47.25;17.65;;;;;;;1.44;100.00;101292.34;4953733;28;20110;-79
2021/01/02 04:31:20;;;;;;;45.55;16.85;;;;;;;1.46;100.00;101286.03;4953286;28;20027;-79
2021/01/02 04:33:46;;;;;;;48.17;18.88;;;;;;;1.42;100.00;101299.53;4968310;28;20401;-79
2021/01/02 04:36:13;;;;;;;45.47;17.33;;;;;;;1.44;100.00;101287.91;4958635;28;20035;-78
2021/01/02 04:38:38;;;;;;;43.60;16.48;;;;;;;1.46;100.00;101287.84;4973549;28;20023;-79
2021/01/02 04:41:04;;;;;;;44.08;17.42;;;;;;;1.48;100.00;101291.22;4973610;28;20035;-78
2021/01/02 04:43:29;;;;;;;43.20;17.95;;;;;;;1.44;100.00;101287.06;4959347;28;20032;-79
2021/01/02 04:45:56;;;;;;;46.63;17.52;;;;;;;1.41;100.00;101293.41;4958945;28;20472;-79
2021/01/02 04:48:21;;;;;;;49.40;18.52;;;;;;;1.40;100.00;101290.84;4957170;28;20031;-79
2021/01/02 04:50:47;;;;;;;43.72;18.00;;;;;;;1.35;100.00;101296.41;4958905;28;20035;-79
2021/01/02 04:53:13;;;;;;;52.85;19.23;;;;;;;1.36;100.00;101292.00;4959348;28;20049;-79
2021/01/02 04:55:43;;;;;;;50.25;18.75;;;;;;;1.35;100.00;101292.91;4958692;28;20027;-79
2021/01/02 04:58:13;;;;;;;42.28;18.77;;;;;;;1.42;100.00;101286.31;4973537;28;20109;-79
2021/01/02 05:00:39;;;;;;;50.53;19.30;;;;;;;1.41;100.00;101292.56;4958810;28;20046;-79
2021/01/02 05:03:05;;;;;;;51.85;19.92;;;;;;;1.37;100.00;101298.97;4958222;28;20035;-81
2021/01/02 05:05:31;;;;;;;49.10;18.88;;;;;;;1.35;100.00;101295.56;4958165;28;20038;-79
2021/01/02 05:07:56;;;;;;;48.83;18.30;;;;;;;1.33;100.00;101295.66;4957419;29;20038;-79
2021/01/02 05:10:22;;;;;;;47.55;18.90;;;;;;;1.35;100.00;101298.22;4957114;29;20035;-79
2021/01/02 05:12:49;;;;;;;46.20;18.30;;;;;;;1.36;100.00;101295.50;4954963;29;20042;-79
2021/01/02 05:15:15;;;;;;;51.58;21.73;;;;;;;1.38;100.00;101301.53;4952688;28;20115;-79
2021/01/02 05:17:41;;;;;;;52.45;20.48;;;;;;;1.35;100.00;101299.06;4952299;28;20118;-79
2021/01/02 05:20:12;;;;;;;55.03;20.02;;;;;;;1.32;100.00;101306.34;4952792;28;20034;-79
2021/01/02 05:22:39;;;;;;;49.75;20.15;;;;;;;1.35;100.00;101312.28;4954294;28;20033;-79
2021/01/02 05:25:05;;;;;;;53.63;21.25;;;;;;;1.36;100.00;101311.34;4959213;28;20035;-80
2021/01/02 05:27:35;;;;;;;57.47;20.85;;;;;;;1.39;100.00;101319.06;4958683;28;20031;-80
2021/01/02 05:30:17;;;;;;;54.85;20.33;;;;;;;1.42;100.00;101312.75;4958952;28;20042;-79
2021/01/02 05:33:05;;;;;;;60.28;21.23;;;;;;;1.44;100.00;101313.50;4958617;28;20087;-79
2021/01/02 05:35:38;;;;;;;59.40;21.30;;;;;;;1.45;100.00;101308.09;4959042;28;20035;-79
2021/01/02 05:38:09;;;;;;;52.13;21.23;;;;;;;1.44;100.00;101314.34;4958620;28;20027;-79
2021/01/02 05:40:38;;;;;;;61.63;21.98;;;;;;;1.47;100.00;101310.69;4958610;29;20413;-79
2021/01/02 05:43:04;;;;;;;63.97;22.40;;;;;;;1.49;100.00;101308.78;4959068;28;20035;-79
2021/01/02 05:45:30;;;;;;;57.28;21.17;;;;;;;1.53;100.00;101307.63;4958469;28;20518;-79
2021/01/02 05:48:11;;;;;;;52.05;19.70;;;;;;;1.58;100.00;101307.34;4958710;28;20440;-79
2021/01/02 05:50:46;;;;;;;58.20;21.40;;;;;;;1.53;100.00;101310.28;4958861;28;20064;-79
2021/01/02 05:53:21;;;;;;;60.95;22.65;;;;;;;1.50;100.00;101307.81;4959264;28;20097;-79
2021/01/02 05:55:46;;;;;;;60.90;22.35;;;;;;;1.50;100.00;101308.66;4977710;28;20158;-79
2021/01/02 05:58:31;;;;;;;60.35;22.60;;;;;;;1.52;100.00;101316.53;4957978;28;20117;-78
2021/01/02 06:01:05;;;;;;;58.97;22.25;;;;;;;1.51;100.00;101313.03;4958652;28;20448;-78
2021/01/02 06:03:31;;;;;;;63.45;22.15;;;;;;;1.54;100.00;101304.03;4958300;28;20047;-78
2021/01/02 06:06:02;;;;;;;59.88;23.10;;;;;;;1.55;100.00;101311.88;4958519;28;20444;-78
2021/01/02 06:08:29;;;;;;;63.75;21.38;;;;;;;1.53;100.00;101313.78;4957725;28;20397;-78
2021/01/02 06:10:59;;;;;;;62.90;23.80;;;;;;;1.51;100.00;101310.38;4958600;28;20035;-77
2021/01/02 06:13:27;;;;;;;67.85;24.20;;;;;;;1.49;100.00;101303.47;4958350;28;20058;-78
2021/01/02 06:15:56;;;;;;;65.03;22.35;;;;;;;1.48;100.00;101309.72;4958791;28;20042;-78
2021/01/02 06:18:21;;;;;;;68.22;22.77;;;;;;;1.46;100.00;101307.19;4958146;28;20031;-80
2021/01/02 06:20:47;;;;;;;62.55;24.17;;;;;;;1.45;100.00;101309.91;4958410;29;20468;-78
2021/01/02 06:23:16;;;;;;;74.13;23.08;;;;;;;1.47;100.00;101308.03;4958354;28;20058;-78
2021/01/02 06:25:42;;;;;;;58.85;21.63;;;;;;;1.45;100.00;101313.41;4958101;28;20492;-78
2021/01/02 06:28:08;;;;;;;70.47;23.85;;;;;;;1.43;100.00;101319.75;4958279;28;20098;-78
2021/01/02 06:30:33;;;;;;;64.82;23.02;;;;;;;1.40;100.00;101314.63;4958135;28;20536;-80
2021/01/02 06:32:59;;;;;;;70.45;23.75;;;;;;;1.39;100.00;101315.59;4958399;28;20039;-77
2021/01/02 06:35:25;;;;;;;68.97;23.90;;;;;;;1.39;100.00;101316.44;4954362;28;20086;-78
2021/01/02 06:37:51;;;;;;;71.10;25.80;;;;;;;1.40;100.00;101317.28;4954866;28;20031;-78
2021/01/02 06:40:22;;;;;;;64.13;23.33;;;;;;;1.42;100.00;101312.75;4948070;28;20043;-78
2021/01/02 06:42:52;;;;;;;67.32;25.08;;;;;;;1.41;100.00;101316.34;4955347;29;20039;-78
2021/01/02 06:45:37;;;;;;;71.13;24.35;;;;;;;1.40;100.00;101312.00;4954796;28;20122;-78
2021/01/02 06:48:24;;;;;;;68.88;26.08;;;;;;;1.43;100.00;101319.75;4944051;29;20111;-77
2021/01/02 06:50:52;;;;;;;67.75;23.23;;;;;;;1.46;100.00;101322.19;4954766;28;20236;-77
2021/01/02 06:53:20;;;;;;;73.10;25.88;;;;;;;1.48;100.00;101315.00;4955301;28;20043;-78
2021/01/02 06:55:57;;;;;;;69.28;23.45;;;;;;;1.52;100.00;101320.00;4952679;29;20270;-79
2021/01/02 06:58:23;;;;;;;63.58;23.27;;;;;;;1.54;100.00;101325.19;4954971;28;20031;-78
2021/01/02 07:00:48;;;;;;;68.50;24.13;;;;;;;1.53;100.00;101327.00;4955936;28;20043;-81
2021/01/02 07:03:39;;;;;;;61.53;23.52;;;;;;;1.53;100.00;101334.94;4956385;29;20031;-79
2021/01/02 07:06:18;;;;;;;73.60;24.65;;;;;;;1.55;100.00;101342.75;4945027;29;20320;-80
2021/01/02 07:08:45;;;;;;;72.00;24.63;;;;;;;1.56;100.00;101344.47;4970991;28;20059;-77
2021/01/02 07:11:34;;;;;;;52.40;21.67;;;;;;;1.58;100.00;101332.00;4971803;28;20042;-79
2021/01/02 07:14:10;;;;;;;59.30;23.40;;;;;;;1.59;100.00;101346.06;4945105;29;20046;-79
2021/01/02 07:16:37;;;;;;;56.63;22.08;;;;;;;1.55;100.00;101348.88;4954454;28;20039;-78
2021/01/02 07:19:05;;;;;;;67.35;23.17;;;;;;;1.53;100.00;101344.66;4954920;28;20112;-80
2021/01/02 07:21:32;;;;;;;61.72;23.48;;;;;;;1.63;100.00;101356.34;4943271;29;20038;-80
2021/01/02 07:24:24;;;;;;;73.70;35.90;;;;;;;1.60;100.00;101355.69;4956127;28;20031;-79
2021/01/02 07:27:04;;;;;;;74.65;33.03;;;;;;;1.58;100.00;101357.59;4955323;28;20099;-79
2021/01/02 07:29:33;;;;;;;70.90;29.65;;;;;;;1.55;100.00;101354.19;4954720;28;20114;-79
2021/01/02 07:32:05;;;;;;;62.10;25.13;;;;;;;1.55;100.00;101350.69;4954261;28;20035;-78
2021/01/02 07:34:31;;;;;;;62.47;25.40;;;;;;;1.54;100.00;101349.00;4969921;28;20027;-79
2021/01/02 07:40:37;;;;;;;63.17;24.10;;;;;;;1.53;100.00;101366.66;4950209;28;20034;-80
2021/01/02 07:43:03;;;;;;;64.97;23.08;;;;;;;1.55;100.00;101366.56;4955351;28;20035;-82
2021/01/02 07:45:29;;;;;;;58.80;22.98;;;;;;;1.59;100.00;101356.66;4948066;28;20449;-82
2021/01/02 07:47:58;;;;;;;68.65;25.15;;;;;;;1.58;100.00;101360.25;4946619;28;20629;-80
2021/01/02 07:50:26;;;;;;;63.05;23.27;;;;;;;1.64;100.00;101357.22;4953560;28;20470;-81
2021/01/02 07:52:55;;;;;;;55.33;23.33;;;;;;;1.66;100.00;101360.63;4953853;28;20144;-80
2021/01/02 07:55:22;;;;;;;65.03;23.42;;;;;;;1.65;100.00;101357.09;4952520;28;20085;-78
2021/01/02 07:57:48;;;;;;;63.47;23.83;;;;;;;1.64;100.00;101358.06;4951239;28;20538;-78
2021/01/02 08:00:14;;;;;;;59.05;23.95;;;;;;;1.60;100.00;101361.84;4952427;28;20166;-78
2021/01/02 08:02:40;;;;;;;66.80;25.15;;;;;;;1.59;100.00;101360.13;4952467;28;20067;-78
2021/01/02 08:05:15;;;;;;;59.85;22.92;;;;;;;1.60;100.00;101360.97;4952409;28;20067;-79
2021/01/02 08:07:42;;;;;;;61.60;23.55;;;;;;;1.59;100.00;101365.44;4951358;29;20031;-79
2021/01/02 08:10:12;;;;;;;64.90;24.40;;;;;;;1.62;100.00;101367.88;4950873;28;20032;-80
2021/01/02 08:12:43;;;;;;;68.50;24.85;;;;;;;1.65;100.00;101367.69;4952927;28;20492;-78
2021/01/02 08:15:10;;;;;;;74.72;26.50;;;;;;;1.68;100.00;101377.22;4966439;28;20031;-78
2021/01/02 08:17:40;;;;;;;66.55;25.02;;;;;;;1.76;100.00;101382.91;4950896;28;20035;-81
2021/01/02 08:20:06;;;;;;;68.75;25.17;;;;;;;1.78;100.00;101381.84;4966580;28;20031;-78
2021/01/02 08:22:36;;;;;;;61.85;24.60;;;;;;;1.86;100.00;101386.66;4966493;28;20042;-78
2021/01/02 08:25:14;;;;;;;58.38;23.33;;;;;;;1.84;100.00;101388.53;4939198;28;20138;-82
2021/01/02 08:27:40;;;;;;;61.42;24.67;;;;;;;1.86;100.00;101384.03;4951165;28;20035;-80
2021/01/02 08:30:09;;;;;;;67.35;27.02;;;;;;;1.89;100.00;101389.09;4950579;29;20023;-78
2021/01/02 08:32:37;;;;;;;63.75;23.88;;;;;;;1.95;100.00;101385.22;4951055;28;20057;-78
2021/01/02 08:35:14;;;;;;;60.88;23.52;;;;;;;1.98;100.00;101390.31;4951806;28;20035;-78
2021/01/02 08:37:39;;;;;;;62.53;24.83;;;;;;;2.02;100.00;101390.03;4950077;28;20457;-79
2021/01/02 08:40:08;;;;;;;60.47;23.55;;;;;;;2.11;100.00;101393.03;4950482;28;20046;-78
2021/01/02 08:42:37;;;;;;;68.65;25.38;;;;;;;2.18;100.00;101403.13;4965447;28;20122;-77
2021/01/02 08:45:04;;;;;;;68.68;24.23;;;;;;;2.26;100.00;101400.84;4950841;28;20031;-77
2021/01/02 08:47:29;;;;;;;68.70;24.77;;;;;;;2.34;100.00;101398.53;4949859;28;20027;-77
2021/01/02 08:49:55;;;;;;;66.57;24.90;;;;;;;2.47;100.00;101398.59;4951575;29;20061;-77
2021/01/02 08:52:22;;;;;;;68.95;26.10;;;;;;;2.55;100.00;101398.91;4950038;28;20038;-79
2021/01/02 08:54:52;;;;;;;61.60;23.40;;;;;;;2.68;100.00;101403.41;4965945;28;20477;-78
2021/01/02 08:57:41;;;;;;;54.80;23.05;;;;;;;2.76;100.00;101396.66;4947413;28;20127;-79
2021/01/02 09:00:08;;;;;;;53.63;22.00;;;;;;;2.80;100.00;101403.44;4965521;28;20039;-80
2021/01/02 09:02:34;;;;;;;54.50;22.13;;;;;;;2.82;100.00;101398.91;4950806;28;20050;-80
2021/01/02 09:05:03;;;;;;;56.15;22.95;;;;;;;2.80;100.00;101406.09;4951824;28;20035;-79
2021/01/02 09:07:29;;;;;;;54.55;22.20;;;;;;;2.78;100.00;101400.06;4950205;28;20043;-82
2021/01/02 09:10:15;;;;;;;56.28;24.15;;;;;;;2.82;100.00;101421.91;4950724;28;20422;-78
2021/01/02 09:12:42;;;;;;;54.38;22.92;;;;;;;2.73;100.00;101420.72;4950465;28;20407;-82
2021/01/02 09:15:08;;;;;;;56.40;23.63;;;;;;;2.75;100.00;101416.16;4949637;28;20042;-79
2021/01/02 09:17:47;;;;;;;61.92;25.40;;;;;;;2.74;100.00;101425.06;4949836;28;20045;-80
2021/01/02 09:20:15;;;;;;;61.67;24.33;;;;;;;2.70;100.00;101422.72;4964919;28;20027;-80
2021/01/02 09:22:52;;;;;;;52.53;21.35;;;;;;;2.74;100.00;101421.56;4950533;28;20114;-79
2021/01/02 09:25:18;;;;;;;57.65;22.33;;;;;;;2.75;100.00;101418.78;4950604;28;20062;-80
2021/01/02 09:27:44;;;;;;;63.13;22.98;;;;;;;2.77;100.00;101416.06;4949815;28;20035;-79
2021/01/02 09:30:10;;;;;;;55.22;22.90;;;;;;;2.79;100.00;101417.66;4950713;28;20035;-80
2021/01/02 09:32:38;;;;;;;60.38;24.13;;;;;;;2.87;100.00;101416.31;4965438;28;20114;-80
2021/01/02 09:35:06;;;;;;;59.90;23.13;;;;;;;2.84;100.00;101414.69;4950662;28;20027;-79
2021/01/02 09:37:31;;;;;;;60.30;25.08;;;;;;;2.83;100.00;101421.78;4949413;28;20063;-81
2021/01/02 09:40:10;;;;;;;65.45;25.55;;;;;;;2.77;100.00;101419.56;4941631;28;20121;-81
2021/01/02 09:42:35;;;;;;;63.83;24.27;;;;;;;2.72;100.00;101411.06;4960480;28;20122;-80
2021/01/02 09:45:01;;;;;;;135.45;47.30;;;;;;;2.64;100.00;101415.16;4950113;28;20158;-78
2021/01/02 09:47:27;;;;;;;78.60;32.13;;;;;;;2.59;100.00;101415.47;4953168;28;20042;-79
2021/01/02 09:49:52;;;;;;;74.88;28.42;;;;;;;2.52;100.00;101424.78;4959154;28;20032;-78
2021/01/02 09:52:18;;;;;;;86.03;30.90;;;;;;;2.53;100.00;101431.78;4949285;28;20027;-80
2021/01/02 09:54:43;;;;;;;74.18;27.45;;;;;;;2.57;100.00;101436.78;4949839;28;20456;-80
2021/01/02 09:57:09;;;;;;;128.90;42.25;;;;;;;2.70;100.00;101436.78;4962366;28;20102;-79
2021/01/02 09:59:34;;;;;;;159.60;51.42;;;;;;;2.92;100.00;101448.66;4949984;28;20482;-79
2021/01/02 10:02:00;;;;;;;88.68;33.13;;;;;;;3.03;100.00;101446.97;4950664;29;20401;-79
2021/01/02 10:04:25;;;;;;;83.38;34.95;;;;;;;3.09;100.00;101443.91;4950184;28;20040;-78
2021/01/02 10:06:51;;;;;;;58.13;24.25;;;;;;;3.15;100.00;101452.38;4949533;28;20035;-78
2021/01/02 10:09:16;;;;;;;59.05;23.73;;;;;;;3.19;100.00;101452.06;4951882;28;20528;-78
2021/01/02 10:11:44;;;;;;;60.17;24.83;;;;;;;3.23;100.00;101455.38;4954171;28;20039;-79
2021/01/02 10:14:09;;;;;;;62.72;22.73;;;;;;;3.32;100.00;101447.66;4954032;29;20035;-78
2021/01/02 10:16:35;;;;;;;60.83;23.52;;;;;;;3.34;100.00;101451.03;4968315;28;20405;-78
2021/01/02 10:19:00;;;;;;;58.30;25.27;;;;;;;3.28;100.00;101456.75;4954034;28;20062;-79
2021/01/02 10:21:26;;;;;;;52.47;22.05;;;;;;;3.33;100.00;101459.94;4955517;28;20045;-78
2021/01/02 10:23:51;;;;;;;58.70;24.38;;;;;;;3.31;100.00;101453.91;4955750;28;20031;-81
2021/01/02 10:26:22;;;;;;;58.08;23.58;;;;;;;3.40;100.00;101451.56;4955904;28;20057;-81
2021/01/02 10:28:48;;;;;;;70.22;26.55;;;;;;;3.47;100.00;101445.75;4956086;28;20286;-81
2021/01/02 10:31:20;;;;;;;75.90;27.95;;;;;;;3.54;100.00;101440.84;4955613;28;20038;-81
2021/01/02 10:33:46;;;;;;;66.95;27.40;;;;;;;3.51;100.00;101433.09;4955392;28;20020;-81
2021/01/02 10:36:11;;;;;;;67.40;27.38;;;;;;;3.68;100.00;101430.13;4954598;28;20154;-80
2021/01/02 10:38:37;;;;;;;70.72;25.83;;;;;;;3.79;100.00;101435.53;4955115;28;20444;-80
2021/01/02 10:41:02;;;;;;;69.40;28.08;;;;;;;3.93;100.00;101433.72;4954412;28;20039;-78
2021/01/02 10:43:28;;;;;;;64.13;24.92;;;;;;;4.08;100.00;101429.97;4956065;28;20450;-80
2021/01/02 10:45:53;;;;;;;53.67;21.63;;;;;;;4.26;100.00;101428.63;4955557;28;20051;-78
2021/01/02 10:48:19;;;;;;;53.50;23.88;;;;;;;4.50;100.00;101433.97;4955833;29;20110;-80
2021/01/02 10:50:45;;;;;;;57.70;22.85;;;;;;;4.63;100.00;101420.63;4955518;28;20519;-79
2021/01/02 10:53:10;;;;;;;53.78;23.67;;;;;;;4.82;100.00;101417.41;4956515;28;20031;-80
2021/01/02 10:55:36;;;;;;;46.90;21.00;;;;;;;4.89;100.00;101411.53;4970313;28;20461;-79
2021/01/02 10:58:01;;;;;;;48.75;19.48;;;;;;;4.99;100.00;101419.69;4953762;28;20031;-78
2021/01/02 11:00:26;;;;;;;51.42;20.45;;;;;;;4.97;100.00;101415.41;4970219;28;20039;-79
2021/01/02 11:02:52;;;;;;;49.90;20.15;;;;;;;4.94;100.00;101413.84;4956019;28;20279;-81
2021/01/02 11:05:17;;;;;;;48.42;20.90;;;;;;;4.94;100.00;101411.19;4970512;28;20039;-81
2021/01/02 11:07:43;;;;;;;52.08;19.73;;;;;;;4.76;100.00;101416.06;4956557;28;20024;-80
2021/01/02 11:10:09;;;;;;;45.85;19.88;;;;;;;4.75;100.00;101408.22;4956900;28;20027;-80
2021/01/02 11:12:35;;;;;;;63.80;26.00;;;;;;;4.71;100.00;101409.41;4957363;28;20504;-79
2021/01/02 11:15:00;;;;;;;49.58;20.10;;;;;;;4.63;100.00;101402.03;4957049;28;20194;-80
2021/01/02 11:17:26;;;;;;;63.05;28.02;;;;;;;4.71;100.00;101402.28;4956550;28;20028;-77
2021/01/02 11:19:52;;;;;;;57.22;26.38;;;;;;;4.61;100.00;101401.28;4951118;28;20086;-82
2021/01/02 11:22:17;;;;;;;55.60;20.35;;;;;;;4.68;100.00;101402.53;4945310;29;20032;-80
2021/01/02 11:24:45;;;;;;;47.53;20.70;;;;;;;4.74;100.00;101398.56;4954058;28;20046;-80
2021/01/02 11:27:12;;;;;;;54.35;22.27;;;;;;;4.59;100.00;101389.91;4954587;28;20036;-80